Time;durP1;ratioP1;P1;durP2;ratioP2;P2;SDS_P1;SDS_P2;PMS_P1;PMS_P2;Temp;Humidity;BMP_temperature;BMP_pressure;BME280_temperature;BME280_humidity;BME280_pressure;Samples;Min_cycle;Max_cycle;Signal;HPM_P1;HPM_P2
2022/12/01 04:00:56;;;;;;;1.70;1.70;;;5.10;82.30;;;;;;6096191;23;20428;31
2022/12/01 04:03:24;;;;;;;1.30;1.30;;;5.10;82.80;;;;;;4917771;29;20464;-76
2022/12/01 04:05:51;;;;;;;1.83;1.83;;;5.00;82.70;;;;;;4919238;29;20491;-73
2022/12/01 04:08:18;;;;;;;2.20;2.20;;;5.00;83.00;;;;;;4918897;29;20468;-74
2022/12/01 04:10:45;;;;;;;2.00;1.90;;;5.10;82.80;;;;;;4921754;29;20842;-74
2022/12/01 04:13:21;;;;;;;1.90;1.90;;;5.10;82.70;;;;;;4938115;29;20451;-73
2022/12/01 04:15:47;;;;;;;1.83;1.83;;;5.10;82.90;;;;;;4939369;29;20494;-74
2022/12/01 04:18:15;;;;;;;2.03;2.03;;;5.00;83.20;;;;;;4937689;29;20928;-74
2022/12/01 04:20:43;;;;;;;1.90;1.90;;;5.00;83.30;;;;;;4937867;29;20483;-74
2022/12/01 04:23:09;;;;;;;2.00;1.97;;;5.00;83.30;;;;;;4937867;29;20532;-74
2022/12/01 04:25:36;;;;;;;2.20;2.20;;;4.90;82.90;;;;;;4937773;29;20452;-74
2022/12/01 04:28:03;;;;;;;2.10;2.00;;;4.80;83.60;;;;;;4937701;29;20466;-73
2022/12/01 04:30:29;;;;;;;2.20;2.17;;;4.70;83.80;;;;;;4937980;29;20448;-74
2022/12/01 04:32:57;;;;;;;1.73;1.73;;;4.70;84.00;;;;;;4937681;29;20459;-74
2022/12/01 04:35:25;;;;;;;1.67;1.67;;;4.70;83.90;;;;;;4937654;29;20456;-74
2022/12/01 04:37:52;;;;;;;1.90;1.90;;;4.70;84.30;;;;;;4938149;29;20503;-74
2022/12/01 04:40:20;;;;;;;1.67;1.67;;;4.90;83.90;;;;;;4937248;29;20955;-74
2022/12/01 04:42:47;;;;;;;2.00;2.00;;;4.90;83.60;;;;;;4937744;29;20871;-74
2022/12/01 04:45:13;;;;;;;2.10;2.10;;;4.90;83.70;;;;;;4937495;29;20448;-74
2022/12/01 04:47:40;;;;;;;1.97;1.97;;;4.80;83.30;;;;;;4937414;29;20500;-74
2022/12/01 04:50:08;;;;;;;1.70;1.70;;;4.90;83.80;;;;;;4937351;29;20452;-74
2022/12/01 04:52:38;;;;;;;1.67;1.67;;;5.10;83.10;;;;;;4938390;29;20476;-73
2022/12/01 04:55:06;;;;;;;2.10;2.10;;;5.20;82.90;;;;;;4937182;29;20890;-74
2022/12/01 04:57:33;;;;;;;1.90;1.90;;;5.30;82.80;;;;;;4937323;29;20577;-74
2022/12/01 05:00:00;;;;;;;1.50;1.50;;;5.30;82.10;;;;;;4937252;29;20448;-74
2022/12/01 05:02:27;;;;;;;1.53;1.53;;;5.30;82.60;;;;;;4936769;29;20999;-74
2022/12/01 05:04:53;;;;;;;2.00;1.90;;;5.40;82.30;;;;;;4936792;29;20455;-74
2022/12/01 05:07:20;;;;;;;1.60;1.60;;;5.50;81.80;;;;;;4937033;29;20488;-74
2022/12/01 05:09:48;;;;;;;1.90;1.90;;;5.40;81.60;;;;;;4937054;29;20448;-74
2022/12/01 05:12:16;;;;;;;1.73;1.73;;;5.50;81.60;;;;;;4936833;29;20808;-74
2022/12/01 05:14:42;;;;;;;1.63;1.63;;;5.50;81.20;;;;;;4937105;29;20554;-74
2022/12/01 05:17:09;;;;;;;1.90;1.90;;;5.50;81.30;;;;;;4936476;29;20955;-74
2022/12/01 05:22:20;;;;;;;1.77;1.77;;;5.50;81.30;;;;;;4936511;29;20592;-74
2022/12/01 05:24:48;;;;;;;1.80;1.80;;;5.50;81.30;;;;;;4936752;29;20448;-74
2022/12/01 05:27:15;;;;;;;1.53;1.53;;;5.50;81.40;;;;;;4936263;29;20843;-74
2022/12/01 05:29:41;;;;;;;1.50;1.50;;;5.50;81.50;;;;;;4936724;29;20448;-74
2022/12/01 05:32:08;;;;;;;1.80;1.80;;;5.60;81.10;;;;;;4936230;29;21038;-74
2022/12/01 05:34:35;;;;;;;1.50;1.50;;;5.70;81.00;;;;;;4936541;29;20452;-74
2022/12/01 05:37:02;;;;;;;1.90;1.90;;;5.70;80.70;;;;;;4936451;29;20448;-74
2022/12/01 05:39:28;;;;;;;1.90;1.90;;;5.70;80.70;;;;;;4936328;29;20456;-74
2022/12/01 05:41:56;;;;;;;1.70;1.70;;;5.80;80.40;;;;;;4936368;29;20468;-74
2022/12/01 05:44:23;;;;;;;1.70;1.70;;;5.90;80.60;;;;;;4936143;29;20944;-74
2022/12/01 05:46:50;;;;;;;1.53;1.53;;;5.90;80.30;;;;;;4936326;29;20570;-74
2022/12/01 05:49:16;;;;;;;1.93;1.93;;;5.90;80.30;;;;;;4936613;29;20463;-74
2022/12/01 05:51:44;;;;;;;2.27;2.17;;;5.90;79.60;;;;;;4936335;29;20472;-74
2022/12/01 05:54:10;;;;;;;1.40;1.40;;;5.90;79.90;;;;;;4936407;29;20455;-73
2022/12/01 05:56:37;;;;;;;2.00;2.00;;;5.90;79.90;;;;;;4936291;29;20455;-73
2022/12/01 05:59:05;;;;;;;1.60;1.60;;;5.90;79.60;;;;;;4936317;29;20459;-74
2022/12/01 06:01:32;;;;;;;1.80;1.80;;;5.90;80.00;;;;;;4936060;29;20495;-74
2022/12/01 06:03:58;;;;;;;1.70;1.70;;;5.90;79.80;;;;;;4936238;29;20814;-74
2022/12/01 06:06:25;;;;;;;1.47;1.47;;;5.80;79.90;;;;;;4936081;29;20488;-74
2022/12/01 06:08:52;;;;;;;2.10;2.10;;;5.70;79.80;;;;;;4936231;29;20503;-74
2022/12/01 06:11:18;;;;;;;1.80;1.80;;;5.60;79.80;;;;;;4936123;29;20865;-74
2022/12/01 06:13:45;;;;;;;1.93;1.93;;;5.50;80.20;;;;;;4936165;29;20455;-74
2022/12/01 06:16:13;;;;;;;1.90;1.90;;;5.50;80.70;;;;;;4936106;29;20475;-74
2022/12/01 06:18:40;;;;;;;1.97;1.97;;;5.50;80.60;;;;;;4936176;29;20939;-72
2022/12/01 06:21:07;;;;;;;2.07;2.07;;;5.40;80.70;;;;;;4936365;29;20507;-74
2022/12/01 06:23:34;;;;;;;2.10;2.00;;;5.40;82.70;;;;;;4936079;29;20542;-74
2022/12/01 06:26:01;;;;;;;1.70;1.70;;;5.50;81.90;;;;;;4935991;29;20484;-74
2022/12/01 06:28:28;;;;;;;2.40;2.30;;;5.50;81.20;;;;;;4935932;29;20514;-74
2022/12/01 06:30:54;;;;;;;1.97;1.97;;;5.20;81.10;;;;;;4935833;29;20474;-74
2022/12/01 06:33:23;;;;;;;2.10;2.10;;;5.10;81.60;;;;;;4935967;29;20456;-74
2022/12/01 06:35:56;;;;;;;1.97;1.97;;;5.10;82.00;;;;;;4935568;29;20939;-74
2022/12/01 06:38:23;;;;;;;1.70;1.70;;;5.20;82.10;;;;;;4935947;29;20428;-74
2022/12/01 06:40:49;;;;;;;2.10;2.10;;;5.10;81.80;;;;;;4935887;29;20468;-74
2022/12/01 06:43:16;;;;;;;2.40;2.30;;;5.10;82.00;;;;;;4935613;29;20452;-74
2022/12/01 06:45:43;;;;;;;1.80;1.80;;;5.10;82.40;;;;;;4935898;29;20459;-74
2022/12/01 06:48:11;;;;;;;1.70;1.70;;;5.10;82.20;;;;;;4936229;29;20517;-74
2022/12/01 06:50:39;;;;;;;1.87;1.87;;;5.10;82.30;;;;;;4938333;29;20460;-74
2022/12/01 06:53:06;;;;;;;2.00;2.00;;;5.10;82.20;;;;;;4940116;29;20447;-74
2022/12/01 06:55:33;;;;;;;2.30;2.30;;;4.90;82.30;;;;;;4940119;29;20451;-74
2022/12/01 06:58:00;;;;;;;2.00;1.90;;;4.90;82.80;;;;;;4939975;29;20503;-74
2022/12/01 07:00:27;;;;;;;2.07;2.07;;;4.90;83.10;;;;;;4940054;29;20455;-75
2022/12/01 07:02:54;;;;;;;2.20;2.20;;;4.90;83.20;;;;;;4939383;29;20487;-74
2022/12/01 07:05:21;;;;;;;2.30;2.20;;;4.90;83.20;;;;;;4939437;29;20482;-75
2022/12/01 07:07:49;;;;;;;2.30;2.20;;;5.00;83.30;;;;;;4939204;29;20488;-75
2022/12/01 07:10:16;;;;;;;2.20;2.10;;;5.10;82.80;;;;;;4938883;29;20452;-74
2022/12/01 07:12:42;;;;;;;1.90;1.90;;;5.10;82.70;;;;;;4939331;29;20479;-75
2022/12/01 07:15:10;;;;;;;2.20;2.20;;;5.10;82.80;;;;;;4939094;29;20448;-74
2022/12/01 07:17:37;;;;;;;2.03;2.03;;;5.30;82.50;;;;;;4939065;29;20447;-75
2022/12/01 07:20:04;;;;;;;2.23;2.13;;;5.30;82.20;;;;;;4939908;29;20451;-75
2022/12/01 07:22:31;;;;;;;2.50;2.40;;;5.40;82.10;;;;;;4939630;29;20472;-74
2022/12/01 07:24:59;;;;;;;2.23;2.13;;;5.30;81.90;;;;;;4939159;29;20548;-74
2022/12/01 07:27:28;;;;;;;1.83;1.83;;;5.30;82.30;;;;;;4938771;29;20484;-74
2022/12/01 07:29:55;;;;;;;2.50;2.50;;;5.20;82.50;;;;;;4938930;29;20452;-74
2022/12/01 07:32:22;;;;;;;2.10;2.10;;;5.20;82.20;;;;;;4938713;29;20487;-74
2022/12/01 07:34:48;;;;;;;2.03;2.03;;;5.20;82.50;;;;;;4938525;29;21064;-74
2022/12/01 07:37:15;;;;;;;2.20;2.20;;;5.20;82.80;;;;;;4938822;29;20451;-74
2022/12/01 07:39:42;;;;;;;1.87;1.87;;;5.30;82.20;;;;;;4938816;29;20454;-74
2022/12/01 07:42:10;;;;;;;1.63;1.63;;;5.20;82.30;;;;;;4938767;29;20471;-75
2022/12/01 07:44:36;;;;;;;2.30;2.30;;;5.20;82.60;;;;;;4938598;29;20461;-74
2022/12/01 07:47:03;;;;;;;2.10;2.03;;;5.20;82.70;;;;;;4938529;29;20484;-74
2022/12/01 07:49:30;;;;;;;1.97;1.97;;;5.10;82.80;;;;;;4938479;29;20452;-75
2022/12/01 07:51:56;;;;;;;2.37;2.27;;;5.10;83.10;;;;;;4938350;29;20468;-74
2022/12/01 07:54:24;;;;;;;2.10;2.10;;;4.90;83.20;;;;;;4938373;29;20455;-74
2022/12/01 07:56:51;;;;;;;2.00;1.90;;;5.00;83.60;;;;;;4938792;29;20456;-75
2022/12/01 07:59:19;;;;;;;2.27;2.17;;;5.10;83.60;;;;;;4938425;29;20455;-74
2022/12/01 08:01:46;;;;;;;1.80;1.80;;;5.20;83.30;;;;;;4938469;29;20491;-75
2022/12/01 08:04:12;;;;;;;1.90;1.90;;;5.30;82.80;;;;;;4938499;29;20951;-75
2022/12/01 08:06:39;;;;;;;2.13;2.13;;;5.40;82.50;;;;;;4938588;29;20531;-75
2022/12/01 08:09:06;;;;;;;1.93;1.83;;;5.40;82.20;;;;;;4939145;29;20452;-73
2022/12/01 08:11:33;;;;;;;2.80;2.60;;;5.50;82.30;;;;;;4938815;29;20482;-75
2022/12/01 08:14:00;;;;;;;2.13;2.13;;;5.60;82.20;;;;;;4938692;29;20543;-74
2022/12/01 08:16:28;;;;;;;2.00;1.90;;;5.60;81.90;;;;;;4938517;29;20459;-75
2022/12/01 08:18:55;;;;;;;2.20;2.10;;;5.60;81.30;;;;;;4938237;29;20519;-74
2022/12/01 08:21:23;;;;;;;1.93;1.93;;;5.50;81.70;;;;;;4939186;29;20474;-74
2022/12/01 08:23:53;;;;;;;1.90;1.90;;;5.50;81.50;;;;;;4938437;29;20459;-74
2022/12/01 08:26:21;;;;;;;2.20;2.20;;;5.50;81.60;;;;;;4938175;29;20909;-74
2022/12/01 08:28:48;;;;;;;1.73;1.73;;;5.40;81.70;;;;;;4938695;29;20488;-74
2022/12/01 08:31:18;;;;;;;1.93;1.93;;;5.40;82.20;;;;;;4938054;29;20476;-74
2022/12/01 08:33:46;;;;;;;1.73;1.73;;;5.40;82.20;;;;;;4938754;29;20452;-75
2022/12/01 08:36:14;;;;;;;2.10;2.10;;;5.30;82.50;;;;;;4938290;29;20451;-74
2022/12/01 08:38:43;;;;;;;1.97;1.97;;;5.10;82.90;;;;;;4938439;29;20459;-75
2022/12/01 08:41:10;;;;;;;1.93;1.93;;;5.30;82.80;;;;;;4938311;29;20921;-74
2022/12/01 08:43:38;;;;;;;2.60;2.50;;;5.30;82.30;;;;;;4938037;29;20452;-74
2022/12/01 08:46:06;;;;;;;1.93;1.83;;;5.50;82.20;;;;;;4937678;29;20452;-74
2022/12/01 08:48:33;;;;;;;1.87;1.87;;;5.50;82.10;;;;;;4937660;29;20491;-74
2022/12/01 08:51:07;;;;;;;1.83;1.83;;;5.50;81.80;;;;;;4937152;29;20998;-74
2022/12/01 08:53:35;;;;;;;1.97;1.97;;;5.50;82.10;;;;;;4937733;29;20443;-74
2022/12/01 08:56:03;;;;;;;2.10;2.10;;;5.50;82.00;;;;;;4937732;29;20452;-74
2022/12/01 08:58:30;;;;;;;2.00;2.00;;;5.50;81.60;;;;;;4937768;29;20451;-74
2022/12/01 09:01:06;;;;;;;1.70;1.70;;;5.30;82.00;;;;;;4937287;29;21022;-74
2022/12/01 09:03:33;;;;;;;1.80;1.80;;;5.40;82.50;;;;;;4937540;29;20451;-74
2022/12/01 09:06:07;;;;;;;2.00;2.00;;;5.40;82.10;;;;;;4937542;29;20459;-76
2022/12/01 09:08:35;;;;;;;1.80;1.80;;;5.40;82.50;;;;;;4938074;29;20511;-75
2022/12/01 09:11:03;;;;;;;2.00;1.90;;;5.50;82.00;;;;;;4937268;29;20487;-75
2022/12/01 09:13:31;;;;;;;2.20;2.10;;;5.40;81.80;;;;;;4936037;29;20939;-75
2022/12/01 09:15:59;;;;;;;1.93;1.93;;;5.40;82.00;;;;;;4937007;29;20448;-75
2022/12/01 09:18:26;;;;;;;2.03;2.03;;;5.30;82.10;;;;;;4937203;29;20451;-75
2022/12/01 09:20:53;;;;;;;1.70;1.70;;;5.30;82.20;;;;;;4937248;29;20553;-76
2022/12/01 09:23:21;;;;;;;2.00;2.00;;;5.30;82.80;;;;;;4937186;29;20458;-75
2022/12/01 09:25:48;;;;;;;2.10;2.10;;;5.40;82.20;;;;;;4937051;29;20460;-74
2022/12/01 09:28:16;;;;;;;2.33;2.27;;;5.50;82.20;;;;;;4936647;29;21026;-75
2022/12/01 09:30:43;;;;;;;2.30;2.23;;;5.50;82.10;;;;;;4936992;29;20995;-75
2022/12/01 09:33:10;;;;;;;2.20;2.20;;;5.50;82.20;;;;;;4936511;29;20840;-75
2022/12/01 09:35:37;;;;;;;2.33;2.33;;;5.60;82.00;;;;;;4936730;29;20449;-75
2022/12/01 09:38:04;;;;;;;2.20;2.20;;;5.70;81.80;;;;;;4936493;29;20444;-75
2022/12/01 09:40:39;;;;;;;1.90;1.90;;;5.50;81.40;;;;;;4936432;29;20448;-75
2022/12/01 09:43:13;;;;;;;2.20;2.10;;;5.40;82.00;;;;;;4936241;29;20919;-75
2022/12/01 09:45:44;;;;;;;1.97;1.97;;;5.50;82.00;;;;;;4938218;29;20441;-75
2022/12/01 09:48:25;;;;;;;1.80;1.80;;;5.60;81.60;;;;;;4937392;29;20472;-75
2022/12/01 09:50:52;;;;;;;2.03;2.03;;;5.60;81.90;;;;;;4937055;29;21006;-75
2022/12/01 09:53:23;;;;;;;1.83;1.83;;;5.50;81.80;;;;;;4937476;29;20455;-75
2022/12/01 09:55:52;;;;;;;2.03;2.03;;;5.50;82.30;;;;;;4937076;29;20452;-75
2022/12/01 09:58:22;;;;;;;1.80;1.80;;;5.60;82.10;;;;;;4937140;29;20444;-75
2022/12/01 10:00:51;;;;;;;2.53;2.43;;;5.70;82.00;;;;;;4936822;29;20480;-75
2022/12/01 10:03:28;;;;;;;1.90;1.90;;;5.70;82.00;;;;;;4936503;29;20810;-75
2022/12/01 10:06:01;;;;;;;1.60;1.60;;;5.80;81.80;;;;;;4936758;29;20447;-75
2022/12/01 10:08:33;;;;;;;2.10;2.10;;;5.80;81.20;;;;;;4936361;29;20495;-75
2022/12/01 10:11:07;;;;;;;1.90;1.90;;;5.80;81.30;;;;;;4936214;29;20477;-75
2022/12/01 10:13:41;;;;;;;1.83;1.83;;;5.60;81.60;;;;;;4937032;29;20444;-74
2022/12/01 10:16:11;;;;;;;2.10;2.10;;;5.40;82.20;;;;;;4936777;29;20441;-75
2022/12/01 10:18:51;;;;;;;1.80;1.80;;;5.30;83.20;;;;;;4936540;29;20455;-75
2022/12/01 10:21:30;;;;;;;2.10;2.10;;;5.40;83.50;;;;;;4936313;29;20480;-75
2022/12/01 10:24:26;;;;;;;1.90;1.90;;;5.40;83.30;;;;;;4936416;29;20447;-75
2022/12/01 10:26:59;;;;;;;2.10;2.00;;;5.50;82.90;;;;;;4940176;29;20456;-74
2022/12/01 10:29:41;;;;;;;1.90;1.90;;;5.40;83.00;;;;;;4939942;29;20479;-74
2022/12/01 10:32:17;;;;;;;1.70;1.70;;;5.40;83.10;;;;;;4939962;29;20475;-75
2022/12/01 10:34:45;;;;;;;1.83;1.83;;;5.40;83.20;;;;;;4940533;29;20428;-76
2022/12/01 10:37:17;;;;;;;2.07;2.07;;;5.50;83.40;;;;;;4940204;29;20452;-75
2022/12/01 10:39:45;;;;;;;1.73;1.73;;;5.50;83.10;;;;;;4940064;29;20436;-75
2022/12/01 10:42:18;;;;;;;2.13;2.13;;;5.50;83.70;;;;;;4940164;29;20503;-76
2022/12/01 10:44:45;;;;;;;1.70;1.70;;;5.60;83.30;;;;;;4940452;29;20436;-75
2022/12/01 10:47:19;;;;;;;1.70;1.70;;;5.60;82.90;;;;;;4939751;29;20452;-76
2022/12/01 10:49:46;;;;;;;2.10;2.10;;;5.70;83.20;;;;;;4939933;29;20494;-76
2022/12/01 10:52:32;;;;;;;2.10;2.10;;;5.60;83.60;;;;;;4939664;29;20502;-75
2022/12/01 10:54:59;;;;;;;2.00;2.00;;;5.80;83.30;;;;;;4939804;29;20435;-74
2022/12/01 10:57:28;;;;;;;1.90;1.90;;;5.80;83.10;;;;;;4939768;29;20451;-75
2022/12/01 10:59:59;;;;;;;1.70;1.70;;;5.90;82.80;;;;;;4939235;29;20456;-75
2022/12/01 11:02:29;;;;;;;2.10;2.10;;;6.00;82.60;;;;;;4939380;29;20487;-76
2022/12/01 11:04:58;;;;;;;1.67;1.67;;;5.90;82.60;;;;;;4939188;29;20456;-75
2022/12/01 11:07:28;;;;;;;1.90;1.90;;;6.00;82.50;;;;;;4939267;29;20455;-75
2022/12/01 11:10:17;;;;;;;1.70;1.70;;;6.00;82.00;;;;;;4939184;29;20448;-76
2022/12/01 11:12:52;;;;;;;2.20;2.13;;;6.00;82.30;;;;;;4938984;29;20468;-76
2022/12/01 11:15:22;;;;;;;2.07;2.07;;;5.90;82.50;;;;;;4939133;29;20487;-76
2022/12/01 11:17:56;;;;;;;1.93;1.93;;;6.00;82.20;;;;;;4939297;29;20447;-76
2022/12/01 11:20:32;;;;;;;1.70;1.70;;;5.90;82.30;;;;;;4938950;29;20428;-76
2022/12/01 11:23:25;;;;;;;1.60;1.60;;;5.80;82.40;;;;;;4939017;29;20482;-76
2022/12/01 11:26:02;;;;;;;1.77;1.67;;;5.80;82.60;;;;;;4938596;29;20433;-75
2022/12/01 11:28:32;;;;;;;1.50;1.50;;;5.90;82.80;;;;;;4944115;29;20474;-80
2022/12/01 11:31:02;;;;;;;2.10;2.10;;;5.80;82.80;;;;;;4939722;29;20835;-76
2022/12/01 11:33:30;;;;;;;2.10;2.10;;;5.80;82.30;;;;;;4938452;29;20455;-76
2022/12/01 11:35:57;;;;;;;1.70;1.70;;;5.80;82.20;;;;;;4938001;29;20479;-76
2022/12/01 11:38:30;;;;;;;1.90;1.90;;;5.90;82.50;;;;;;4938650;29;20452;-77
2022/12/01 11:40:58;;;;;;;2.00;2.00;;;5.90;82.50;;;;;;4938854;29;20464;-76
2022/12/01 11:43:28;;;;;;;2.00;2.00;;;6.00;82.00;;;;;;4938800;29;20456;-75
2022/12/01 11:45:58;;;;;;;1.77;1.77;;;6.00;81.80;;;;;;4939461;29;20448;-76
2022/12/01 11:48:27;;;;;;;1.50;1.50;;;6.10;81.50;;;;;;4938460;29;20472;-76
2022/12/01 11:51:04;;;;;;;1.57;1.57;;;5.90;81.60;;;;;;4938513;29;20476;-76
2022/12/01 11:53:33;;;;;;;1.40;1.40;;;6.00;81.70;;;;;;4938474;29;20444;-76
2022/12/01 11:56:16;;;;;;;1.90;1.90;;;5.90;81.60;;;;;;4938457;29;20486;-76
2022/12/01 11:58:43;;;;;;;1.73;1.73;;;5.90;81.60;;;;;;4938344;29;20451;-77
2022/12/01 12:01:25;;;;;;;1.73;1.73;;;5.80;81.70;;;;;;4938885;29;20492;-76
2022/12/01 12:04:00;;;;;;;1.93;1.90;;;5.80;82.10;;;;;;4939340;29;20432;-76
2022/12/01 12:06:32;;;;;;;1.73;1.73;;;5.70;81.80;;;;;;4939226;29;20938;-76
2022/12/01 12:09:15;;;;;;;1.67;1.67;;;5.80;82.40;;;;;;4939543;29;20467;-78
2022/12/01 12:11:52;;;;;;;1.60;1.60;;;5.80;82.00;;;;;;4939249;29;20472;-77
2022/12/01 12:14:33;;;;;;;1.90;1.90;;;6.00;81.70;;;;;;4939487;29;20447;-78
2022/12/01 12:17:15;;;;;;;1.70;1.70;;;6.00;81.60;;;;;;4940028;29;20787;-77
2022/12/01 12:20:00;;;;;;;1.73;1.73;;;6.10;81.20;;;;;;4940242;29;20483;-77
2022/12/01 12:22:42;;;;;;;1.40;1.40;;;6.10;81.40;;;;;;4938999;29;20472;-76
2022/12/01 12:25:24;;;;;;;2.10;2.00;;;6.10;81.30;;;;;;4938645;29;20436;-76
2022/12/01 12:28:02;;;;;;;1.77;1.77;;;6.00;81.30;;;;;;4939296;29;20436;-78
2022/12/01 12:30:31;;;;;;;1.80;1.80;;;6.10;81.80;;;;;;4938214;29;20912;-76
2022/12/01 12:33:28;;;;;;;1.80;1.80;;;6.20;81.70;;;;;;4938483;29;20451;-76
2022/12/01 12:36:04;;;;;;;1.87;1.87;;;6.20;81.10;;;;;;4938447;29;20432;-76
2022/12/01 12:38:48;;;;;;;1.67;1.67;;;6.20;81.30;;;;;;4938512;29;20432;-75
2022/12/01 12:41:28;;;;;;;1.83;1.83;;;6.30;81.10;;;;;;4938239;29;20467;-76
2022/12/01 12:44:08;;;;;;;1.77;1.77;;;6.40;80.60;;;;;;4937827;29;20467;-76
2022/12/01 12:46:42;;;;;;;2.00;1.97;;;6.30;80.80;;;;;;4938103;29;20439;-75
2022/12/01 12:49:25;;;;;;;2.17;2.10;;;6.30;80.40;;;;;;4936890;29;20468;-76
2022/12/01 12:51:59;;;;;;;1.87;1.87;;;6.40;80.00;;;;;;4937403;29;20472;-76
2022/12/01 12:54:30;;;;;;;1.40;1.40;;;6.30;80.10;;;;;;4937811;29;20441;-74
2022/12/01 12:57:03;;;;;;;1.83;1.83;;;6.20;80.40;;;;;;4937862;29;20436;-76
2022/12/01 12:59:34;;;;;;;1.93;1.93;;;6.30;80.70;;;;;;4937604;29;20437;-76
2022/12/01 13:02:12;;;;;;;1.97;1.97;;;6.30;80.70;;;;;;4937444;29;20487;-76
2022/12/01 13:04:47;;;;;;;1.53;1.53;;;6.30;80.60;;;;;;4938741;29;20440;-75
2022/12/01 13:07:25;;;;;;;1.97;1.87;;;6.40;80.40;;;;;;4937656;29;20436;-75
2022/12/01 13:09:57;;;;;;;1.40;1.40;;;6.40;80.40;;;;;;4937470;29;20479;-77
2022/12/01 13:12:28;;;;;;;1.80;1.80;;;6.40;80.70;;;;;;4937453;29;20471;-76
2022/12/01 13:15:00;;;;;;;1.93;1.83;;;6.40;80.50;;;;;;4937857;29;20445;-77
2022/12/01 13:17:30;;;;;;;1.83;1.83;;;6.50;80.20;;;;;;4937125;29;20780;-77
2022/12/01 13:19:58;;;;;;;1.70;1.70;;;6.50;79.80;;;;;;4937431;29;20452;-77
2022/12/01 13:22:34;;;;;;;1.80;1.80;;;6.30;80.20;;;;;;4942934;29;20472;-75
2022/12/01 13:25:03;;;;;;;1.70;1.70;;;6.20;80.40;;;;;;4944248;29;20452;-78
2022/12/01 13:27:33;;;;;;;1.80;1.80;;;6.10;81.10;;;;;;4945230;29;20456;-75
2022/12/01 13:30:00;;;;;;;1.40;1.40;;;6.10;81.00;;;;;;4941563;29;20510;-77
2022/12/01 13:32:34;;;;;;;1.80;1.80;;;6.10;81.40;;;;;;4936783;29;20477;-76
2022/12/01 13:35:05;;;;;;;1.40;1.40;;;6.10;81.20;;;;;;4936902;29;20471;-77
2022/12/01 13:37:35;;;;;;;1.67;1.67;;;6.10;81.30;;;;;;4936613;29;20436;-76
2022/12/01 13:40:12;;;;;;;1.67;1.67;;;6.30;81.10;;;;;;4936531;29;20448;-76
2022/12/01 13:42:38;;;;;;;1.50;1.50;;;6.40;81.10;;;;;;4936417;29;20483;-76
2022/12/01 13:45:15;;;;;;;1.67;1.67;;;6.20;81.40;;;;;;4936514;29;20452;-77
2022/12/01 13:47:51;;;;;;;1.70;1.70;;;6.20;81.10;;;;;;4938237;29;20436;-77
2022/12/01 13:51:02;;;;;;;1.90;1.80;;;6.30;81.30;;;;;;4937002;29;21119;-77
2022/12/01 13:53:35;;;;;;;1.87;1.87;;;6.30;80.80;;;;;;4937333;29;20454;-77
2022/12/01 13:56:21;;;;;;;1.90;1.90;;;6.20;81.00;;;;;;4937204;29;20535;-76
2022/12/01 13:58:50;;;;;;;1.57;1.57;;;6.20;81.40;;;;;;4936914;29;20523;-75
2022/12/01 14:01:57;;;;;;;1.73;1.73;;;6.20;81.00;;;;;;4936622;29;20530;-77
2022/12/01 14:04:29;;;;;;;1.73;1.73;;;6.10;81.10;;;;;;4936461;29;20925;-76
2022/12/01 14:07:35;;;;;;;1.30;1.30;;;6.10;81.50;;;;;;4936990;29;20823;-77
2022/12/01 14:10:24;;;;;;;1.77;1.77;;;6.00;81.70;;;;;;4936320;29;20482;-77
2022/12/01 14:12:53;;;;;;;1.60;1.60;;;6.10;81.40;;;;;;4936589;29;20455;-76
2022/12/01 14:15:41;;;;;;;1.70;1.70;;;6.20;81.40;;;;;;4937659;29;20452;-76
2022/12/01 14:18:22;;;;;;;1.57;1.57;;;6.10;81.50;;;;;;4936486;29;20491;-76
2022/12/01 14:20:50;;;;;;;1.57;1.57;;;6.10;81.60;;;;;;4936644;29;20472;-76
2022/12/01 14:23:23;;;;;;;1.80;1.80;;;6.00;81.70;;;;;;4936571;29;20475;-76
2022/12/01 14:26:11;;;;;;;1.60;1.60;;;6.00;81.90;;;;;;4936363;29;20432;-76
2022/12/01 14:29:18;;;;;;;1.60;1.60;;;6.10;81.90;;;;;;4936462;29;20463;-76
2022/12/01 14:32:23;;;;;;;1.43;1.43;;;6.00;81.50;;;;;;4936318;29;20499;-77
2022/12/01 14:35:09;;;;;;;1.60;1.60;;;6.00;81.90;;;;;;4936725;29;20439;-76
2022/12/01 14:37:42;;;;;;;1.90;1.90;;;6.00;82.20;;;;;;4936513;29;20435;-75
2022/12/01 14:40:15;;;;;;;1.80;1.80;;;6.00;82.00;;;;;;4936342;29;20425;-75
2022/12/01 14:45:38;;;;;;;1.90;1.90;;;6.00;81.90;;;;;;4936568;29;20456;-77
2022/12/01 14:48:10;;;;;;;1.73;1.73;;;5.80;82.40;;;;;;4936459;29;20450;-76
2022/12/01 14:50:41;;;;;;;1.90;1.90;;;5.70;83.10;;;;;;4936283;29;20499;-75
2022/12/01 14:53:18;;;;;;;2.30;2.10;;;5.70;83.40;;;;;;4936482;29;20433;-76
2022/12/01 14:55:50;;;;;;;1.53;1.53;;;5.80;83.20;;;;;;4936203;29;20432;-76
2022/12/01 14:58:22;;;;;;;1.70;1.70;;;5.80;82.80;;;;;;4936046;29;20443;-77
2022/12/01 15:00:58;;;;;;;1.53;1.53;;;5.80;83.30;;;;;;4935820;29;20506;-77
2022/12/01 15:03:29;;;;;;;1.60;1.60;;;5.90;82.70;;;;;;4935752;29;20912;-77
2022/12/01 15:05:56;;;;;;;1.93;1.83;;;5.90;82.80;;;;;;4936304;29;20447;-77
2022/12/01 15:08:24;;;;;;;1.70;1.70;;;6.00;82.60;;;;;;4938712;29;20459;-76
2022/12/01 15:10:53;;;;;;;1.63;1.63;;;6.10;82.20;;;;;;4940462;29;20492;-76
2022/12/01 15:13:26;;;;;;;2.00;1.90;;;6.00;82.10;;;;;;4945382;29;20830;-76
2022/12/01 15:15:55;;;;;;;1.77;1.77;;;6.00;82.30;;;;;;4945627;29;20516;-76
2022/12/01 15:18:26;;;;;;;1.73;1.73;;;6.10;82.20;;;;;;4944997;29;20456;-76
2022/12/01 15:20:59;;;;;;;1.63;1.63;;;6.10;82.20;;;;;;4943499;29;20476;-76
2022/12/01 15:23:26;;;;;;;1.80;1.80;;;6.00;82.40;;;;;;4944453;29;20429;-78
2022/12/01 15:25:53;;;;;;;1.43;1.43;;;6.10;82.20;;;;;;4945877;29;20452;-77
2022/12/01 15:28:29;;;;;;;1.73;1.73;;;6.10;82.20;;;;;;4946393;29;20479;-77
2022/12/01 15:30:57;;;;;;;1.90;1.90;;;6.20;82.10;;;;;;4942928;29;20995;-75
2022/12/01 15:33:27;;;;;;;1.67;1.67;;;6.20;81.90;;;;;;4943189;29;20452;-76
2022/12/01 15:35:54;;;;;;;1.63;1.63;;;6.30;82.10;;;;;;4943118;29;20452;-76
2022/12/01 15:38:26;;;;;;;1.40;1.40;;;6.30;81.90;;;;;;4942965;29;20455;-77
2022/12/01 15:40:55;;;;;;;1.60;1.60;;;6.30;81.90;;;;;;4943478;29;20563;-77
2022/12/01 15:43:26;;;;;;;1.70;1.70;;;6.40;81.80;;;;;;4941478;29;20463;-76
2022/12/01 15:45:57;;;;;;;1.63;1.63;;;6.40;81.50;;;;;;4941322;29;20443;-76
2022/12/01 15:48:30;;;;;;;1.90;1.80;;;6.40;81.40;;;;;;4942462;29;20538;-75
2022/12/01 15:51:14;;;;;;;2.13;2.07;;;6.40;81.40;;;;;;4944569;29;20491;-76
2022/12/01 15:53:47;;;;;;;1.97;1.97;;;6.40;81.60;;;;;;4943372;29;20436;-76
2022/12/01 15:56:14;;;;;;;1.47;1.47;;;6.40;81.50;;;;;;4942806;29;20436;-75
2022/12/01 15:58:45;;;;;;;1.80;1.80;;;6.50;81.60;;;;;;4941929;29;20467;-75
2022/12/01 16:01:15;;;;;;;1.80;1.80;;;6.50;81.50;;;;;;4942198;29;20488;-76
2022/12/01 16:03:54;;;;;;;1.83;1.83;;;6.60;81.50;;;;;;4943207;29;20459;-76
2022/12/01 16:06:23;;;;;;;1.50;1.50;;;6.60;81.50;;;;;;4945206;29;20448;-76
2022/12/01 16:08:56;;;;;;;1.57;1.57;;;6.50;81.30;;;;;;4944943;29;20443;-78
2022/12/01 16:11:23;;;;;;;1.30;1.30;;;6.50;81.40;;;;;;4943713;29;20472;-76
2022/12/01 16:13:59;;;;;;;1.73;1.73;;;6.40;81.60;;;;;;4972053;23;20471;-77
2022/12/01 16:16:39;;;;;;;1.60;1.60;;;6.40;81.70;;;;;;4976416;28;20802;-76
2022/12/01 16:19:28;;;;;;;1.47;1.47;;;6.40;81.70;;;;;;4976652;28;20449;-76
2022/12/01 16:21:58;;;;;;;1.47;1.47;;;6.30;81.80;;;;;;4977029;28;20449;-77
2022/12/01 16:24:29;;;;;;;1.57;1.57;;;6.30;81.90;;;;;;4976873;28;20470;-75
2022/12/01 16:26:59;;;;;;;1.60;1.60;;;6.20;82.40;;;;;;4976369;28;20454;-76
2022/12/01 16:29:29;;;;;;;1.60;1.60;;;6.30;82.60;;;;;;4977357;28;20505;-77
2022/12/01 16:31:59;;;;;;;1.80;1.80;;;6.30;82.20;;;;;;4976968;28;20434;-77
2022/12/01 16:34:27;;;;;;;1.83;1.83;;;6.40;82.20;;;;;;4976241;28;20478;-77
2022/12/01 16:36:54;;;;;;;1.70;1.70;;;6.30;82.00;;;;;;4976712;28;20454;-77
2022/12/01 16:39:21;;;;;;;1.87;1.77;;;6.40;82.20;;;;;;4976651;28;20455;-77
2022/12/01 16:41:47;;;;;;;1.80;1.80;;;6.40;82.40;;;;;;4976189;28;20450;-77
2022/12/01 16:44:16;;;;;;;1.70;1.70;;;6.30;82.70;;;;;;4975881;28;20476;-76
2022/12/01 16:46:44;;;;;;;1.83;1.80;;;6.30;83.20;;;;;;4975928;28;20545;-76
2022/12/01 16:49:11;;;;;;;1.67;1.67;;;6.30;83.40;;;;;;4975971;28;20455;-76
2022/12/01 16:51:38;;;;;;;1.50;1.50;;;6.30;83.40;;;;;;4976056;28;20455;-76
2022/12/01 16:54:05;;;;;;;1.80;1.80;;;6.30;83.60;;;;;;4975657;28;20486;-75
2022/12/01 16:56:32;;;;;;;1.93;1.93;;;6.30;83.40;;;;;;4975724;28;20461;-76
2022/12/01 16:59:00;;;;;;;1.73;1.70;;;6.30;83.60;;;;;;4975471;28;20454;-75
2022/12/01 17:01:27;;;;;;;1.60;1.60;;;6.30;83.70;;;;;;4975800;28;20485;-76
2022/12/01 17:03:55;;;;;;;1.73;1.73;;;6.40;83.50;;;;;;4976163;28;20450;-76
2022/12/01 17:06:22;;;;;;;1.83;1.83;;;6.40;83.60;;;;;;4976027;28;20450;-77
2022/12/01 17:08:49;;;;;;;1.60;1.60;;;6.50;83.60;;;;;;4976203;28;20454;-76
2022/12/01 17:11:16;;;;;;;1.87;1.87;;;6.40;83.50;;;;;;4975725;28;20493;-76
2022/12/01 17:13:43;;;;;;;1.60;1.60;;;6.40;83.80;;;;;;4975433;28;20457;-77
2022/12/01 17:16:10;;;;;;;1.97;1.97;;;6.30;83.70;;;;;;4975142;28;20461;-77
2022/12/01 17:18:38;;;;;;;1.87;1.87;;;6.30;83.90;;;;;;4975918;28;20446;-76
2022/12/01 17:21:08;;;;;;;1.70;1.70;;;6.30;83.90;;;;;;4976108;28;20446;-76
2022/12/01 17:23:37;;;;;;;1.57;1.57;;;6.30;84.30;;;;;;4975397;28;20438;-76